echo '';

Nearby METAR Reports

 

ENRY - Rygge (nor-Afb), Norway
Distance from station: NV 23km
Oppdatert: 27/07/2017 20:20
Overskyet
Overskyet
 Vind fra Ø
Vind: Ø 6 km/h
Temperatur: 16°C
Duggpunkt: 15°C
Fuktighet: 94%
Barometer: 1001 hPa
Clouds: Overskyet
Visibility: 16 miles
Cloud details: Hovedsaklig skyet 853 m
Overskyet 1128 m
2017/07/27 18:20 ENRY 271820Z AUTO 10003KT 9999NDV BKN028/// OVC037/// 16/15 Q1001 REDZ
ENTO - Torp (civ/Nor-Af, Norway
Distance from station: V 47km
Oppdatert: 27/07/2017 20:20
Hovedsaklig skyet
Hovedsaklig skyet
 Vind fra ØSØ
Vind: ØSØ 7 km/h
Temperatur: 16°C
Duggpunkt: 16°C
Fuktighet: 100%
Barometer: 1001 hPa
Clouds: Hovedsaklig skyet
Visibility: 10 km
Cloud details: Delvis skyet 518 m
Hovedsaklig skyet 671 m
2017/07/27 18:20 ENTO 271820Z 11004KT 080V160 9999 SCT017 BKN022 16/16 Q1001
 
ENSN - Skien/Geiterygge, Norway
Distance from station: V 87km
Oppdatert: 09/11/2015 09:50
NOT Current
Klart
Klart
 Vind fra SSV
Vind: SSV 19 km/h, Vindkast: 41 km/h
Temperatur: 7°C
Vindkjøling: 4°C
Duggpunkt: 3°C
Fuktighet: 76%
Barometer: 1000 hPa
Oversikt: Klart
Visibility: greater than 10 km
2015/11/09 08:50 ENSN 090850Z 20010G22KT 150V240 CAVOK 07/03 Q1000
ENGM - Oslo/Gardermoen, Norway
Distance from station: 0 107km
Oppdatert: 27/07/2017 20:20
Lett regn, Hovedsaklig skyet
Lett regn, Hovedsaklig skyet
 Vind fra varies
Vind: varies 4 km/h
Temperatur: 16°C
Duggpunkt: 13°C
Fuktighet: 83%
Barometer: 1002 hPa
Oversikt: Lett regn
Clouds: Hovedsaklig skyet
Visibility: 10 km
Cloud details: Few Clouds 914 m
Hovedsaklig skyet 1524 m
2017/07/27 18:20 ENGM 271820Z VRB02KT 9999 -RA FEW030 BKN050 16/13 Q1002 NOSIG
 
ENNO - Notodden, Norway
Distance from station: VNV 112km
Oppdatert: 27/07/2017 18:50
NOT Current
Nearby showers, Hovedsaklig skyet
Nearby showers, Hovedsaklig skyet
 Vind fra NV
Vind: NV 11 km/h
Temperatur: 15°C
Duggpunkt: 14°C
Fuktighet: 94%
Barometer: 1001 hPa
Oversikt: Nearby Showers
Clouds: Hovedsaklig skyet
Visibility: 10 km
Cloud details: Few Clouds 366 m
Delvis skyet 1067 m
Hovedsaklig skyet 1829 m
2017/07/27 16:50 ENNO 271650Z 31006KT 9999 VCSH FEW012 SCT035 BKN060 15/14 Q1001
ESGT - Trollhattan (pvt, Sweden
Distance from station: SØ 125km
Oppdatert: 26/07/2017 13:50
NOT Current
Hovedsaklig skyet
Hovedsaklig skyet
 Vind fra NNØ
Vind: NNØ 22 km/h
Temperatur: 19°C
Duggpunkt: 12°C
Fuktighet: 64%
Barometer: 1007 hPa
Clouds: Hovedsaklig skyet
Visibility: 10 km
Cloud details: Hovedsaklig skyet 1250 m
2017/07/26 11:50 ESGT 261150Z 02012KT 9999 BKN041 19/12 Q1007
 
ESIB - Satenas (swe-Afb, Sweden
Distance from station: SØ 129km
Oppdatert: 27/07/2017 20:20
Klart
Klart
 Vind fra ØSØ
Vind: ØSØ 6 km/h
Temperatur: 16°C
Duggpunkt: 16°C
Fuktighet: 100%
Barometer: 1001 hPa
Clouds: Klart
Visibility: 10 km
2017/07/27 18:20 ESIB 271820Z AUTO 12003KT 9999 NCD 16/16 Q1001
ESOK - Karlstad North, Sweden
Distance from station: ØNØ 129km
Oppdatert: 27/07/2017 20:20
Klart
Klart
 Vind fra Ø
Vind: Ø 9 km/h
Temperatur: 20°C
Duggpunkt: 14°C
Fuktighet: 69%
Barometer: 1001 hPa
Oversikt: Klart
Visibility: greater than 10 km
2017/07/27 18:20 ESOK 271820Z 08005KT CAVOK 20/14 Q1001
 
ESGP - Goteborg/Save (a, Sweden
Distance from station: SSØ 169km
Oppdatert: 02/01/2017 11:20
NOT Current
Klart
Klart
 Vind fra calm
Vind: Stille
Temperatur: -2°C
Duggpunkt: -4°C
Fuktighet: 86%
Barometer: 1012 hPa
Clouds: Klart
Visibility: 10 km
2017/01/02 10:20 ESGP 021020Z AUTO 00000KT 9999 NCD M02/M04 Q1012
ESGG - Goteborg/Landvet, Sweden
Distance from station: SSØ 188km
Oppdatert: 27/07/2017 20:20
Delvis skyet
Delvis skyet
 Vind fra S
Vind: S 11 km/h
Temperatur: 15°C
Duggpunkt: 14°C
Fuktighet: 94%
Barometer: 1002 hPa
Clouds: Delvis skyet
Visibility: 10 km
Cloud details: Few Clouds 244 m
Delvis skyet 1036 m
2017/07/27 18:20 ESGG 271820Z 19006KT 9999 FEW008 SCT034 15/14 Q1002
 
EKSN - Sindal Airport, Denmark
Distance from station: SSV 199km
Oppdatert: 27/07/2017 15:50
NOT Current
Hovedsaklig skyet
Hovedsaklig skyet
 Vind fra S
Vind: S 11 km/h
Temperatur: 17°C
Duggpunkt: 16°C
Fuktighet: 94%
Barometer: 1001 hPa
Clouds: Hovedsaklig skyet
Visibility: 10 km
Cloud details: Delvis skyet 335 m
Hovedsaklig skyet 1585 m
2017/07/27 13:50 EKSN 271350Z 18006KT 9999 SCT011 BKN052 17/16 Q1001
ENCN - Kristiansand/Kje, Norway
Distance from station: VSV 209km
Oppdatert: 27/07/2017 20:20
Few Clouds
Few Clouds
 Vind fra SV
Vind: SV 20 km/h
Temperatur: 18°C
Duggpunkt: 11°C
Fuktighet: 64%
Barometer: 1000 hPa
Clouds: Few Clouds
Visibility: 10 km
Cloud details: Few Clouds 610 m
2017/07/27 18:20 ENCN 271820Z 23011KT 9999 FEW020TCU 18/11 Q1000
 
ENFG - Fagernes/Leirin, Norway
Distance from station: NNV 220km
Oppdatert: 09/07/2017 12:50
NOT Current
Hovedsaklig skyet
Hovedsaklig skyet
 Vind fra SV
Vind: SV 13 km/h
Temperatur: 13°C
Duggpunkt: 3°C
Fuktighet: 51%
Barometer: 1007 hPa
Clouds: Hovedsaklig skyet
Visibility: 10 km
Cloud details: Few Clouds 183 m
Hovedsaklig skyet 2438 m
2017/07/09 10:50 ENFG 091050Z 22007KT 9999 FEW0060 BKN080 13/03 Q1007
ESOE - Orebro (private), Sweden
Distance from station: Ø 225km
Oppdatert: 27/07/2017 20:20
Klart
Klart
 Vind fra V
Vind: V 7 km/h
Temperatur: 21°C
Duggpunkt: 15°C
Fuktighet: 69%
Barometer: 1002 hPa
Oversikt: Klart
Visibility: greater than 10 km
2017/07/27 18:20 ESOE 271820Z 28004KT CAVOK 21/15 Q1002
 
ESGJ - Jonkoping Airpor, Sweden
Distance from station: SØ 238km
Oppdatert: 27/07/2017 20:20
Klart
Klart
 Vind fra V
Vind: V 7 km/h
Temperatur: 17°C
Duggpunkt: 13°C
Fuktighet: 77%
Barometer: 1002 hPa
Oversikt: Klart
Visibility: greater than 10 km
2017/07/27 18:20 ESGJ 271820Z 27004KT CAVOK 17/13 Q1002
EKYT - Alborg, Denmark
Distance from station: SSV 248km
Oppdatert: 27/07/2017 20:20
Hovedsaklig skyet
Hovedsaklig skyet
 Vind fra VNV
Vind: VNV 6 km/h
Temperatur: 17°C
Duggpunkt: 13°C
Fuktighet: 77%
Barometer: 1002 hPa
Clouds: Hovedsaklig skyet
Visibility: 10 km
Cloud details: Few Clouds 366 m
Hovedsaklig skyet 4877 m
2017/07/27 18:20 EKYT 271820Z 29003KT 9999 FEW012 BKN160 17/13 Q1002
 
ESCF - Linkoping/Malmen, Sweden
Distance from station: ØSØ 272km
Oppdatert: 27/07/2017 20:20
Overskyet
Overskyet
 Vind fra varies
Vind: varies 4 km/h
Temperatur: 21°C
Duggpunkt: 15°C
Fuktighet: 69%
Barometer: 1002 hPa
Clouds: Overskyet
Visibility: 10 km
Cloud details: Delvis skyet 1768 m
Hovedsaklig skyet 2743 m
Overskyet 5182 m
2017/07/27 18:20 ESCF 271820Z AUTO VRB02KT 9999 SCT058/// BKN090/// OVC170/// 21/15 Q1002
ESSD - Borlange (swe-Af, Sweden
Distance from station: ØNØ 279km
Oppdatert: 27/07/2017 20:20
Hovedsaklig skyet
Hovedsaklig skyet
 Vind fra Ø
Vind: Ø 7 km/h
Temperatur: 20°C
Duggpunkt: 13°C
Fuktighet: 64%
Barometer: 1003 hPa
Clouds: Hovedsaklig skyet
Visibility: 10 km
Cloud details: Hovedsaklig skyet 2743 m
2017/07/27 18:20 ESSD 271820Z AUTO 10004KT 9999 BKN090/// 20/13 Q1003
 
ESSL - Linkoping/Saab, Sweden
Distance from station: ØSØ 280km
Oppdatert: 27/07/2017 20:20
Overskyet
Overskyet
 Vind fra ØSØ
Vind: ØSØ 13 km/h
Temperatur: 20°C
Duggpunkt: 14°C
Fuktighet: 69%
Barometer: 1002 hPa
Clouds: Overskyet
Visibility: 10 km
Cloud details: Few Clouds 1676 m
Overskyet 4572 m
2017/07/27 18:20 ESSL 271820Z AUTO 11007KT 9999 FEW055/// OVC150/// 20/14 Q1002
ESMT - Halmstad (swe-Af, Sweden
Distance from station: SSØ 303km
Oppdatert: 27/07/2017 20:20
Lett regn, Overskyet
Lett regn, Overskyet
 Vind fra SSV
Vind: SSV 19 km/h
Temperatur: 17°C
Duggpunkt: 16°C
Fuktighet: 94%
Barometer: 1003 hPa
Oversikt: Lett regn
Clouds: Overskyet
Visibility: 10 km
Cloud details: Delvis skyet 213 m
Hovedsaklig skyet 305 m
Overskyet 975 m
2017/07/27 18:20 ESMT 271820Z AUTO 20010KT 9999 -RA SCT007/// BKN010/// OVC032/// 17/16 Q1003